Time;durP1;ratioP1;P1;durP2;ratioP2;P2;SDS_P1;SDS_P2;PMS_P1;PMS_P2;Temp;Humidity;BMP_temperature;BMP_pressure;BME280_temperature;BME280_humidity;BME280_pressure;Samples;Min_cycle;Max_cycle;Signal;HPM_P1;HPM_P2
2022/12/29 00:02:08;;;;;;;10.80;3.60;;;;;;;9.16;100.00;99918.03;5083389;28;20044;-75
2022/12/29 00:04:34;;;;;;;7.20;2.90;;;;;;;9.16;100.00;99930.34;5064044;28;20039;-75
2022/12/29 00:06:59;;;;;;;8.15;2.90;;;;;;;9.19;100.00;99917.16;5082186;28;20029;-80
2022/12/29 00:09:25;;;;;;;6.18;2.50;;;;;;;9.17;100.00;99919.78;5083299;28;20063;-78
2022/12/29 00:11:51;;;;;;;8.07;2.60;;;;;;;9.16;100.00;99920.69;5081349;28;20029;-75
2022/12/29 00:17:01;;;;;;;8.85;2.22;;;;;;;8.95;100.00;99897.91;5080817;28;20035;-75
2022/12/29 00:36:09;;;;;;;7.20;2.25;;;;;;;8.44;100.00;99882.25;5080554;28;20403;-76
2022/12/29 00:44:06;;;;;;;7.65;2.67;;;;;;;8.40;100.00;99872.56;5080709;28;20085;-76
2022/12/29 00:46:39;;;;;;;9.70;3.10;;;;;;;8.41;100.00;99870.84;5082348;28;20036;-75
2022/12/29 00:51:51;;;;;;;11.98;3.70;;;;;;;8.48;100.00;99864.69;5081198;28;20066;-77
2022/12/29 00:54:17;;;;;;;9.82;3.40;;;;;;;8.44;100.00;99870.81;5087543;28;20016;-80
2022/12/29 00:56:42;;;;;;;11.13;4.15;;;;;;;8.49;100.00;99867.34;5084248;28;20056;-77
2022/12/29 00:59:09;;;;;;;14.02;4.40;;;;;;;8.50;100.00;99874.38;5086797;28;20475;-77
2022/12/29 01:01:36;;;;;;;12.85;4.50;;;;;;;8.57;100.00;99858.53;5085292;28;20024;-78
2022/12/29 01:04:01;;;;;;;14.68;4.82;;;;;;;8.54;100.00;99854.13;5085085;28;20550;-77
2022/12/29 01:06:26;;;;;;;14.57;5.35;;;;;;;8.59;100.00;99840.94;5067036;28;20127;-77
2022/12/29 01:11:37;;;;;;;15.18;5.22;;;;;;;8.69;100.00;99835.66;5081886;28;20071;-77
2022/12/29 01:14:02;;;;;;;14.68;4.80;;;;;;;8.73;100.00;99829.47;5086490;28;20040;-77
2022/12/29 01:16:28;;;;;;;13.68;4.63;;;;;;;8.73;100.00;99825.97;5075309;28;20079;-77
2022/12/29 01:18:54;;;;;;;13.57;4.50;;;;;;;8.78;100.00;99825.94;5084535;28;20051;-77
2022/12/29 01:21:19;;;;;;;12.13;4.30;;;;;;;8.78;100.00;99823.31;5084511;28;20029;-77
2022/12/29 01:23:44;;;;;;;11.02;4.15;;;;;;;8.80;100.00;99835.59;5084686;28;20462;-76
2022/12/29 01:26:11;;;;;;;12.80;3.95;;;;;;;8.86;100.00;99834.69;5086911;28;20078;-77
2022/12/29 01:28:39;;;;;;;12.02;3.70;;;;;;;8.87;100.00;99836.47;5073169;28;20036;-76
2022/12/29 01:31:05;;;;;;;10.57;3.38;;;;;;;8.89;100.00;99824.13;5081082;28;20021;-77
2022/12/29 01:33:30;;;;;;;10.18;3.53;;;;;;;8.80;100.00;99817.16;5085396;28;20035;-77
2022/12/29 01:36:00;;;;;;;10.88;3.40;;;;;;;8.87;100.00;99812.75;5084069;28;20463;-76
2022/12/29 01:38:25;;;;;;;10.35;3.35;;;;;;;8.79;100.00;99820.66;5084722;28;20029;-76
2022/12/29 01:40:51;;;;;;;10.85;3.20;;;;;;;8.80;100.00;99819.78;5086414;28;20088;-76
2022/12/29 01:43:16;;;;;;;10.45;3.03;;;;;;;8.78;100.00;99816.28;5065314;28;20083;-77
2022/12/29 01:45:49;;;;;;;9.93;2.72;;;;;;;8.84;100.00;99818.91;5086355;28;20024;-76
2022/12/29 01:48:15;;;;;;;9.23;2.90;;;;;;;8.89;100.00;99816.22;5078853;28;20032;-78
2022/12/29 01:50:48;;;;;;;8.93;2.70;;;;;;;9.00;100.00;99824.97;5086393;28;20028;-76
2022/12/29 01:53:28;;;;;;;8.68;2.50;;;;;;;9.05;100.00;99833.72;5083311;28;20036;-76
2022/12/29 01:55:59;;;;;;;8.05;2.40;;;;;;;8.99;100.00;99831.13;5080924;28;20028;-77
2022/12/29 01:58:29;;;;;;;7.60;2.60;;;;;;;8.93;100.00;99831.16;5085749;28;20454;-76
2022/12/29 02:00:54;;;;;;;7.78;2.53;;;;;;;9.02;100.00;99822.31;5083210;28;20024;-76
2022/12/29 02:03:22;;;;;;;9.75;2.70;;;;;;;8.99;100.00;99815.28;5086261;28;20047;-77
2022/12/29 02:05:58;;;;;;;5.30;2.33;;;;;;;9.08;100.00;99828.41;5065043;28;20037;-76
2022/12/29 02:08:27;;;;;;;7.45;2.33;;;;;;;9.16;100.00;99827.50;5080336;28;20107;-75
2022/12/29 02:10:53;;;;;;;7.07;2.30;;;;;;;9.13;100.00;99817.88;5085861;28;20035;-75
2022/12/29 02:13:19;;;;;;;8.52;2.33;;;;;;;9.23;100.00;99834.47;5082502;28;20028;-77
2022/12/29 02:16:02;;;;;;;8.23;2.40;;;;;;;9.21;100.00;99812.53;5085930;28;20089;-75
2022/12/29 02:18:36;;;;;;;9.10;2.30;;;;;;;9.20;100.00;99824.84;5063092;28;20432;-76
2022/12/29 02:21:07;;;;;;;7.47;2.35;;;;;;;9.22;100.00;99830.13;5084088;28;20024;-75
2022/12/29 02:23:54;;;;;;;9.13;2.40;;;;;;;9.25;100.00;99832.72;5084554;28;20402;-78
2022/12/29 02:26:51;;;;;;;8.07;2.17;;;;;;;9.30;100.00;99815.09;5060913;28;20032;-75
2022/12/29 02:29:38;;;;;;;8.98;2.38;;;;;;;9.31;100.00;99827.41;5078473;28;20028;-78
2022/12/29 02:32:13;;;;;;;9.55;2.30;;;;;;;9.40;100.00;99800.97;5098114;28;20031;-75
2022/12/29 02:34:53;;;;;;;9.02;2.30;;;;;;;9.45;100.00;99803.59;5083428;28;20031;-82
2022/12/29 02:37:27;;;;;;;8.90;2.30;;;;;;;9.48;100.00;99794.75;5078699;28;20473;-76
2022/12/29 02:40:20;;;;;;;9.63;2.50;;;;;;;9.53;100.00;99800.88;5079489;28;20028;-75
2022/12/29 02:42:45;;;;;;;;;;;;;;;9.62;100.00;99790.25;5078352;28;20028;-75
2022/12/29 02:45:20;;;;;;;10.40;2.40;;;;;;;9.54;100.00;99790.31;5084788;28;19922;-76
2022/12/29 02:48:17;;;;;;;5.53;2.13;;;;;;;9.40;100.00;99798.31;5078013;28;20275;-75
2022/12/29 02:51:12;;;;;;;8.52;2.30;;;;;;;9.39;100.00;99787.78;5084029;28;20036;-76
2022/12/29 02:56:23;;;;;;;9.68;2.45;;;;;;;9.41;100.00;99794.81;5067570;28;20095;-75
2022/12/29 02:58:48;;;;;;;6.68;2.10;;;;;;;9.38;100.00;99781.66;5085211;28;20032;-76
2022/12/29 03:04:45;;;;;;;9.20;2.30;;;;;;;9.40;100.00;99771.94;5082210;28;20048;-77
2022/12/29 03:07:43;;;;;;;7.63;2.10;;;;;;;9.50;100.00;99777.16;5082085;28;20024;-74
2022/12/29 03:10:25;;;;;;;6.47;2.20;;;;;;;9.39;100.00;99775.50;5083160;28;20055;-81
2022/12/29 03:16:21;;;;;;;5.95;2.10;;;;;;;9.40;100.00;99789.53;5077799;28;20118;-74
2022/12/29 03:18:55;;;;;;;7.47;2.30;;;;;;;9.38;100.00;99786.06;5077300;28;20025;-76
2022/12/29 03:24:38;;;;;;;12.13;2.20;;;;;;;9.37;100.00;99784.28;5081395;28;20040;-76
2022/12/29 03:27:08;;;;;;;10.60;2.40;;;;;;;9.25;100.00;99780.00;5082739;28;20102;-76
2022/12/29 03:29:41;;;;;;;5.78;2.00;;;;;;;9.36;100.00;99769.34;5083293;28;20364;-75
2022/12/29 03:32:09;;;;;;;9.45;2.30;;;;;;;9.30;100.00;99762.34;5082579;28;20024;-78
2022/12/29 03:34:36;;;;;;;7.10;2.17;;;;;;;9.31;100.00;99766.75;5083009;28;20017;-75
2022/12/29 03:37:08;;;;;;;6.15;2.10;;;;;;;9.20;100.00;99764.22;5083221;28;20081;-76
2022/12/29 03:39:33;;;;;;;7.53;2.00;;;;;;;9.22;100.00;99764.19;5082947;28;20025;-76
2022/12/29 03:42:04;;;;;;;8.20;2.22;;;;;;;9.07;100.00;99766.03;5083317;28;20066;-75
2022/12/29 03:44:39;;;;;;;10.13;2.30;;;;;;;9.02;100.00;99756.41;5081997;28;20060;-76
2022/12/29 03:47:06;;;;;;;10.00;2.33;;;;;;;9.11;100.00;99789.75;5083017;28;20031;-76
2022/12/29 03:49:32;;;;;;;8.32;2.30;;;;;;;8.99;100.00;99757.31;5082437;28;20134;-75
2022/12/29 03:51:57;;;;;;;9.57;2.30;;;;;;;8.96;100.00;99757.31;5065312;28;20086;-75
2022/12/29 03:54:23;;;;;;;10.77;2.30;;;;;;;9.10;100.00;99785.34;5081183;28;20016;-76
2022/12/29 03:56:49;;;;;;;9.18;2.25;;;;;;;9.09;100.00;99768.66;5084251;28;20453;-76
2022/12/29 03:59:14;;;;;;;11.10;2.33;;;;;;;9.02;100.00;99774.88;5081031;28;20048;-76
2022/12/29 04:01:39;;;;;;;12.00;2.40;;;;;;;9.02;100.00;99780.13;5083595;28;20091;-75
2022/12/29 04:04:05;;;;;;;11.55;2.40;;;;;;;8.90;100.00;99795.13;5082176;28;20028;-76
2022/12/29 04:06:30;;;;;;;10.98;2.40;;;;;;;8.78;100.00;99794.31;5081889;28;20027;-75
2022/12/29 04:08:55;;;;;;;12.60;2.47;;;;;;;8.76;100.00;99783.78;5083598;28;20051;-75
2022/12/29 04:11:21;;;;;;;11.48;2.40;;;;;;;8.63;100.00;99767.16;5080816;28;20105;-75
2022/12/29 04:13:46;;;;;;;11.98;2.40;;;;;;;8.45;100.00;99786.56;5076333;28;20177;-75
2022/12/29 04:16:12;;;;;;;10.57;2.40;;;;;;;8.32;100.00;99793.59;5083973;28;20037;-76
2022/12/29 04:18:37;;;;;;;12.52;2.40;;;;;;;8.22;100.00;99810.31;5081879;28;20501;-76
2022/12/29 04:21:03;;;;;;;13.02;2.47;;;;;;;8.23;100.00;99812.06;5082112;28;20086;-76
2022/12/29 04:23:35;;;;;;;12.55;2.30;;;;;;;8.23;100.00;99813.78;5083025;28;20481;-81
2022/12/29 04:26:01;;;;;;;10.57;2.20;;;;;;;8.19;100.00;99813.81;5085293;28;20037;-82
2022/12/29 04:28:27;;;;;;;15.30;2.70;;;;;;;8.13;100.00;99802.44;5087350;28;20036;-83
2022/12/29 04:30:53;;;;;;;12.38;2.60;;;;;;;8.13;100.00;99805.06;5084816;28;20055;-83
2022/12/29 04:33:18;;;;;;;15.20;2.60;;;;;;;8.01;100.00;99804.22;5087927;28;20021;-82
2022/12/29 04:35:44;;;;;;;13.32;2.35;;;;;;;8.03;100.00;99804.19;5084796;28;20067;-77
2022/12/29 04:38:09;;;;;;;11.25;2.28;;;;;;;7.99;100.00;99792.81;5086995;28;20108;-85
2022/12/29 04:40:35;;;;;;;10.82;2.60;;;;;;;8.00;100.00;99810.34;5085779;28;20035;-86
2022/12/29 04:43:00;;;;;;;14.60;2.50;;;;;;;7.96;100.00;99818.25;5067521;28;20036;-85
2022/12/29 04:45:26;;;;;;;14.07;2.35;;;;;;;7.89;100.00;99822.63;5087104;28;20165;-76
2022/12/29 04:47:51;;;;;;;12.73;2.20;;;;;;;7.91;100.00;99814.75;5084179;28;20024;-76
2022/12/29 04:50:16;;;;;;;14.63;2.67;;;;;;;7.84;100.00;99827.03;5087933;28;20373;-86
2022/12/29 04:52:42;;;;;;;14.18;2.45;;;;;;;7.88;100.00;99830.53;5084672;28;20033;-76
2022/12/29 04:55:07;;;;;;;16.40;2.42;;;;;;;7.84;100.00;99838.44;5086136;28;20028;-78
2022/12/29 04:57:33;;;;;;;13.85;2.60;;;;;;;7.86;100.00;99846.31;5086024;28;20040;-83
2022/12/29 04:59:58;;;;;;;12.82;2.50;;;;;;;7.88;100.00;99852.47;5084962;28;20036;-75
2022/12/29 05:02:24;;;;;;;14.55;2.20;;;;;;;7.92;100.00;99827.03;5086981;28;20060;-75
2022/12/29 05:04:49;;;;;;;16.30;2.55;;;;;;;7.85;100.00;99847.22;5084186;28;20024;-77
2022/12/29 05:07:15;;;;;;;16.65;2.50;;;;;;;7.91;100.00;99835.81;5068922;28;20047;-75
2022/12/29 05:09:40;;;;;;;15.43;2.50;;;;;;;7.91;100.00;99865.63;5084574;28;20114;-75
2022/12/29 05:12:06;;;;;;;14.63;2.45;;;;;;;7.88;100.00;99859.47;5085826;28;20024;-74
2022/12/29 05:14:31;;;;;;;15.07;2.47;;;;;;;7.96;100.00;99858.59;5085678;28;20056;-74
2022/12/29 05:16:57;;;;;;;15.32;2.60;;;;;;;7.93;100.00;99871.75;5066310;28;20067;-75
2022/12/29 05:19:22;;;;;;;14.82;2.50;;;;;;;7.89;100.00;99875.25;5087360;28;20183;-75
2022/12/29 05:21:47;;;;;;;13.93;2.50;;;;;;;7.98;100.00;99871.75;5083486;28;20028;-75
2022/12/29 05:24:13;;;;;;;14.07;2.42;;;;;;;8.08;100.00;99906.84;5086567;28;20564;-75
2022/12/29 05:26:39;;;;;;;12.18;2.40;;;;;;;8.17;100.00;99885.81;5084527;28;20561;-79
2022/12/29 05:29:04;;;;;;;16.58;2.33;;;;;;;8.14;100.00;99868.25;5085436;28;20041;-76
2022/12/29 05:31:29;;;;;;;14.15;2.50;;;;;;;8.19;100.00;99884.91;5085941;28;20386;-74
2022/12/29 05:33:55;;;;;;;14.40;2.30;;;;;;;8.23;100.00;99880.53;5083977;28;20034;-75
2022/12/29 05:36:20;;;;;;;14.60;2.45;;;;;;;8.32;100.00;99880.50;5086281;28;20028;-75
2022/12/29 05:38:46;;;;;;;12.35;2.20;;;;;;;8.37;100.00;99886.66;5083685;28;20029;-74
2022/12/29 05:41:11;;;;;;;11.68;2.30;;;;;;;8.34;100.00;99891.91;5085807;28;20506;-76
2022/12/29 05:43:36;;;;;;;14.07;2.35;;;;;;;8.45;100.00;99896.31;5084343;28;20040;-76
2022/12/29 05:46:02;;;;;;;12.02;2.40;;;;;;;8.47;100.00;99905.94;5084785;28;20496;-77
2022/12/29 05:48:28;;;;;;;12.60;2.30;;;;;;;8.56;100.00;99905.06;5085759;28;20069;-75
2022/12/29 05:50:53;;;;;;;9.77;2.40;;;;;;;8.67;100.00;99920.84;5083133;28;20063;-75
2022/12/29 05:53:19;;;;;;;12.13;2.30;;;;;;;8.76;100.00;99912.03;5086581;28;20025;-75
2022/12/29 05:55:46;;;;;;;11.02;2.20;;;;;;;8.84;100.00;99915.50;5083538;28;20041;-75
2022/12/29 05:58:11;;;;;;;13.45;2.30;;;;;;;8.87;100.00;99912.91;5085832;28;20356;-75
2022/12/29 06:00:37;;;;;;;15.00;2.47;;;;;;;8.88;100.00;99918.16;5084246;28;20035;-75
2022/12/29 06:03:02;;;;;;;11.18;2.25;;;;;;;8.90;100.00;99904.97;5083997;28;20390;-77
2022/12/29 06:05:27;;;;;;;11.05;2.38;;;;;;;8.94;100.00;99900.56;5085634;28;20074;-75
2022/12/29 06:07:53;;;;;;;11.35;2.20;;;;;;;9.04;100.00;99912.81;5082695;28;20428;-76
2022/12/29 06:10:19;;;;;;;10.45;2.40;;;;;;;9.03;100.00;99911.06;5086128;28;20028;-75
2022/12/29 06:12:45;;;;;;;10.88;2.20;;;;;;;8.98;100.00;99923.38;5082959;28;20483;-75
2022/12/29 06:15:11;;;;;;;10.90;2.20;;;;;;;8.98;100.00;99918.13;5084784;28;20056;-75
2022/12/29 06:17:36;;;;;;;10.88;2.20;;;;;;;9.06;100.00;99933.03;5084004;28;20101;-75
2022/12/29 06:20:02;;;;;;;12.98;2.30;;;;;;;9.14;100.00;99913.66;5084007;28;20525;-75
2022/12/29 06:22:28;;;;;;;11.70;2.30;;;;;;;9.11;100.00;99909.25;5085077;28;20459;-76
2022/12/29 06:24:53;;;;;;;11.15;2.30;;;;;;;9.09;100.00;99913.69;5082383;28;20033;-78
2022/12/29 06:27:18;;;;;;;11.82;2.53;;;;;;;9.06;100.00;99913.69;5081783;28;20475;-74
2022/12/29 06:29:44;;;;;;;12.05;2.30;;;;;;;9.08;100.00;99896.97;5082860;28;20028;-76
2022/12/29 06:32:10;;;;;;;14.40;2.40;;;;;;;9.01;100.00;99916.34;5084330;28;20016;-84
2022/12/29 06:34:35;;;;;;;11.13;2.10;;;;;;;9.00;100.00;99897.88;5074567;28;20033;-85
2022/12/29 06:37:01;;;;;;;13.10;2.53;;;;;;;8.98;100.00;99911.06;5059083;28;20093;-85
2022/12/29 06:39:26;;;;;;;12.57;2.50;;;;;;;8.94;100.00;99896.19;5083424;28;20037;-85
2022/12/29 06:41:53;;;;;;;10.27;2.10;;;;;;;8.92;100.00;99912.88;5055724;28;20090;-84
2022/12/29 06:44:19;;;;;;;14.15;2.30;;;;;;;8.96;100.00;99901.44;5044961;28;20059;-88
2022/12/29 06:46:44;;;;;;;11.63;2.30;;;;;;;8.95;100.00;99903.19;5081142;28;20029;-82
2022/12/29 06:49:10;;;;;;;11.18;2.40;;;;;;;9.03;100.00;99911.06;5061282;28;20044;-87
2022/12/29 06:51:35;;;;;;;13.93;2.60;;;;;;;9.05;100.00;99918.06;5077271;28;20030;-88
2022/12/29 06:54:00;;;;;;;12.77;2.40;;;;;;;9.15;100.00;99891.69;5068885;28;20040;-87
2022/12/29 06:56:26;;;;;;;13.90;2.55;;;;;;;9.10;100.00;99906.63;5076120;28;20031;-85
2022/12/29 06:58:51;;;;;;;12.15;2.50;;;;;;;9.00;100.00;99898.78;5075457;28;20048;-84
2022/12/29 07:01:16;;;;;;;11.02;2.50;;;;;;;9.03;100.00;99906.66;5080217;28;20399;-86
2022/12/29 07:03:43;;;;;;;15.65;2.67;;;;;;;9.05;100.00;99918.06;5075336;28;20119;-87
2022/12/29 07:06:08;;;;;;;14.02;2.30;;;;;;;9.15;100.00;99928.59;5076122;28;20375;-80
2022/12/29 07:08:33;;;;;;;14.00;2.60;;;;;;;9.24;100.00;99925.91;5057968;28;20111;-86
2022/12/29 07:10:59;;;;;;;13.95;2.63;;;;;;;9.28;100.00;99938.19;5079148;28;20060;-84
2022/12/29 07:13:24;;;;;;;12.90;2.40;;;;;;;9.22;100.00;99914.50;5075844;28;20359;-76
2022/12/29 07:15:49;;;;;;;13.48;2.50;;;;;;;9.24;100.00;99926.78;5065273;28;20100;-84
2022/12/29 07:18:15;;;;;;;14.10;2.63;;;;;;;9.23;100.00;99947.88;5074558;28;20040;-73
2022/12/29 07:20:40;;;;;;;14.13;2.50;;;;;;;9.24;100.00;99942.59;5079759;28;20056;-73
2022/12/29 07:23:05;;;;;;;15.35;2.70;;;;;;;9.25;100.00;99932.94;5080733;28;20032;-71
2022/12/29 07:25:31;;;;;;;18.20;2.95;;;;;;;9.25;100.00;99960.19;5076123;28;20029;-75
2022/12/29 07:27:56;;;;;;;13.88;2.60;;;;;;;9.32;100.00;99976.88;5079038;28;20028;-73
2022/12/29 07:30:22;;;;;;;14.43;2.72;;;;;;;9.26;100.00;99945.22;5047999;28;20040;-87
2022/12/29 07:32:47;;;;;;;15.40;2.80;;;;;;;9.25;100.00;99960.19;5071082;28;20491;-80
2022/12/29 07:35:12;;;;;;;15.32;2.65;;;;;;;9.20;100.00;99971.63;5068896;28;20158;-83
2022/12/29 07:37:38;;;;;;;14.57;2.70;;;;;;;9.23;100.00;99993.63;5069849;28;20052;-87
2022/12/29 07:40:04;;;;;;;15.45;2.60;;;;;;;9.20;100.00;99959.34;5067185;28;20531;-73
2022/12/29 07:42:30;;;;;;;17.52;2.83;;;;;;;9.10;100.00;99986.63;5070442;28;20020;-73
2022/12/29 07:44:55;;;;;;;15.57;2.65;;;;;;;9.09;100.00;99966.41;5066127;28;20025;-75
2022/12/29 07:47:20;;;;;;;17.83;3.00;;;;;;;9.10;100.00;99981.34;5073278;28;20470;-75
2022/12/29 07:49:46;;;;;;;19.30;3.03;;;;;;;9.16;100.00;99978.69;5077435;28;20127;-73
2022/12/29 07:52:11;;;;;;;14.65;2.53;;;;;;;9.15;100.00;99954.97;5073573;28;20166;-78
2022/12/29 07:54:37;;;;;;;15.55;3.00;;;;;;;9.11;100.00;99972.53;5072273;28;20409;-76
2022/12/29 07:57:03;;;;;;;17.30;2.78;;;;;;;9.17;100.00;99966.38;5070963;28;20502;-78
2022/12/29 07:59:28;;;;;;;14.75;2.70;;;;;;;9.07;100.00;99961.16;5069643;28;20056;-76
2022/12/29 08:01:54;;;;;;;18.38;3.00;;;;;;;9.00;100.00;99966.41;5071783;28;20454;-77
2022/12/29 08:04:19;;;;;;;14.55;2.80;;;;;;;9.01;100.00;99970.81;5071483;28;20037;-79
2022/12/29 08:06:45;;;;;;;16.75;2.83;;;;;;;9.04;100.00;99973.44;5072534;28;20050;-74
2022/12/29 08:09:10;;;;;;;17.55;2.90;;;;;;;9.14;100.00;99982.22;5075288;28;20510;-74
2022/12/29 08:11:36;;;;;;;18.13;2.70;;;;;;;9.07;100.00;99966.41;5067717;28;20064;-83
2022/12/29 08:14:02;;;;;;;16.17;3.03;;;;;;;9.08;100.00;99977.81;5076129;28;20052;-85
2022/12/29 08:16:27;;;;;;;19.17;2.88;;;;;;;9.10;100.00;99980.47;5075924;28;20388;-85
2022/12/29 08:18:52;;;;;;;18.60;2.90;;;;;;;9.23;100.00;99983.06;5079281;28;20028;-86
2022/12/29 08:21:18;;;;;;;18.75;3.10;;;;;;;9.23;100.00;99996.25;5076176;28;20032;-84
2022/12/29 08:23:43;;;;;;;17.00;3.08;;;;;;;9.23;100.00;99977.78;5076452;28;20040;-86
2022/12/29 08:26:09;;;;;;;18.60;3.00;;;;;;;9.30;100.00;99962.78;5073066;28;20024;-84
2022/12/29 08:28:35;;;;;;;16.40;2.90;;;;;;;9.38;100.00;99984.75;5076066;28;20525;-84
2022/12/29 08:31:02;;;;;;;16.48;2.80;;;;;;;9.36;100.00;99989.16;5086078;28;20120;-76
2022/12/29 08:33:28;;;;;;;17.73;2.90;;;;;;;9.37;100.00;100000.59;5065095;28;20474;-76
2022/12/29 08:36:05;;;;;;;18.83;3.00;;;;;;;9.37;100.00;99990.91;5085561;28;20032;-84
2022/12/29 08:38:31;;;;;;;16.73;2.88;;;;;;;9.38;100.00;100003.22;5081246;28;20120;-75
2022/12/29 08:40:58;;;;;;;17.95;2.80;;;;;;;9.45;100.00;99995.25;5082629;28;20526;-74
2022/12/29 08:43:24;;;;;;;16.88;2.92;;;;;;;9.41;100.00;99976.81;5081986;28;20374;-73
2022/12/29 08:45:49;;;;;;;17.27;2.80;;;;;;;9.46;100.00;99973.28;5081657;28;20029;-77
2022/12/29 08:48:18;;;;;;;16.42;2.60;;;;;;;9.50;100.00;99959.19;5083188;28;20043;-73
2022/12/29 08:50:43;;;;;;;17.50;3.00;;;;;;;9.58;100.00;99994.31;5080565;28;20065;-74
2022/12/29 08:53:09;;;;;;;16.25;2.90;;;;;;;9.58;100.00;99982.03;5084122;28;20048;-75
2022/12/29 08:55:34;;;;;;;17.15;2.80;;;;;;;9.57;100.00;100003.16;5080408;28;20036;-73
2022/12/29 08:58:00;;;;;;;16.63;3.13;;;;;;;9.58;100.00;99997.84;5082837;28;20111;-75
2022/12/29 09:00:25;;;;;;;16.92;2.72;;;;;;;9.58;100.00;100002.22;5081902;28;20060;-73
2022/12/29 09:02:50;;;;;;;17.42;2.60;;;;;;;9.56;100.00;99969.72;5063175;28;20476;-79
2022/12/29 09:05:16;;;;;;;18.40;2.97;;;;;;;9.56;100.00;100001.38;5082898;28;20040;-75
2022/12/29 09:07:41;;;;;;;13.80;2.63;;;;;;;9.57;100.00;100003.16;5080215;28;20123;-74
2022/12/29 09:10:07;;;;;;;14.13;2.60;;;;;;;9.59;100.00;100001.34;5083825;28;20032;-74
2022/12/29 09:12:32;;;;;;;16.90;2.80;;;;;;;9.59;100.00;99996.94;5084373;28;20477;-74
2022/12/29 09:14:57;;;;;;;14.40;2.50;;;;;;;9.47;100.00;100007.56;5077245;28;20048;-88
2022/12/29 09:20:08;;;;;;;19.08;3.10;;;;;;;8.88;100.00;100022.69;5079977;28;20055;-88
2022/12/29 09:22:34;;;;;;;18.95;2.88;;;;;;;8.81;100.00;100013.94;5078897;28;20025;-83
2022/12/29 09:24:59;;;;;;;17.30;2.80;;;;;;;8.59;100.00;100023.63;5077582;28;20082;-86
2022/12/29 09:27:25;;;;;;;14.25;2.65;;;;;;;8.27;100.00;100021.84;5064425;28;20067;-84
2022/12/29 09:29:50;;;;;;;16.30;2.90;;;;;;;8.14;100.00;100036.72;5081206;28;20024;-74
2022/12/29 09:32:15;;;;;;;20.00;3.22;;;;;;;8.09;100.00;100034.97;5079821;28;20033;-72
2022/12/29 09:34:41;;;;;;;17.83;2.85;;;;;;;7.95;100.00;100035.81;5081772;28;20053;-73
2022/12/29 09:37:06;;;;;;;21.70;3.50;;;;;;;7.85;100.00;100044.56;5052947;28;20040;-73
2022/12/29 09:39:31;;;;;;;17.27;3.00;;;;;;;7.98;100.00;100033.19;5079256;28;20033;-74
2022/12/29 09:42:22;;;;;;;18.40;3.05;;;;;;;7.89;100.00;100043.69;5080030;28;20482;-74
2022/12/29 09:45:06;;;;;;;17.58;2.97;;;;;;;7.97;100.00;100044.59;5069578;28;20087;-82
2022/12/29 09:47:32;;;;;;;17.50;3.00;;;;;;;7.96;100.00;100057.75;5079438;28;20032;-77
2022/12/29 09:50:06;;;;;;;18.65;2.85;;;;;;;7.97;100.00;100063.00;5080404;28;20046;-76
2022/12/29 09:52:47;;;;;;;16.70;3.00;;;;;;;8.02;100.00;100077.06;5079524;28;20071;-74
2022/12/29 09:55:13;;;;;;;18.02;2.97;;;;;;;7.95;100.00;100080.56;5077530;28;20033;-74
2022/12/29 09:57:53;;;;;;;16.85;2.83;;;;;;;7.87;100.00;100084.06;5081743;28;20493;-78
2022/12/29 10:00:21;;;;;;;15.55;2.90;;;;;;;7.77;100.00;100080.50;5085960;28;20031;-79
2022/12/29 10:02:55;;;;;;;19.17;3.25;;;;;;;7.75;100.00;100066.47;5082983;28;20036;-79
2022/12/29 10:05:27;;;;;;;17.42;2.83;;;;;;;7.76;100.00;100100.69;5078792;28;20505;-74
2022/12/29 10:08:03;;;;;;;15.10;2.90;;;;;;;7.74;100.00;100096.28;5078978;28;20421;-80
2022/12/29 10:10:40;;;;;;;17.35;2.72;;;;;;;7.70;100.00;100083.97;5067011;28;20085;-76
2022/12/29 10:13:33;;;;;;;16.33;3.00;;;;;;;7.63;100.00;100110.25;5080850;28;20046;-80
2022/12/29 10:16:37;;;;;;;17.27;3.10;;;;;;;7.59;100.00;100116.38;5081137;28;20044;-87
2022/12/29 10:19:09;;;;;;;19.02;3.17;;;;;;;7.56;100.00;100121.63;5068017;28;20140;-82
2022/12/29 10:22:03;;;;;;;17.60;2.92;;;;;;;7.58;100.00;100151.44;5079826;28;20029;-85
2022/12/29 10:24:30;;;;;;;18.50;3.13;;;;;;;7.52;100.00;100133.00;5071603;28;20040;-76
2022/12/29 10:26:58;;;;;;;18.15;3.00;;;;;;;7.53;100.00;100144.38;5075557;28;20033;-81
2022/12/29 10:29:33;;;;;;;18.85;3.40;;;;;;;7.45;100.00;100132.06;5091205;28;20045;-82
2022/12/29 10:32:03;;;;;;;20.92;3.55;;;;;;;7.44;100.00;100154.00;5082168;28;20024;-82
2022/12/29 10:34:36;;;;;;;17.55;3.45;;;;;;;7.41;100.00;100145.19;5076920;28;20032;-87
2022/12/29 10:37:09;;;;;;;19.52;3.33;;;;;;;7.39;100.00;100162.72;5078388;28;20103;-79
2022/12/29 10:39:47;;;;;;;19.55;3.67;;;;;;;7.36;100.00;100167.97;5074099;28;20071;-73
2022/12/29 10:42:36;;;;;;;20.42;3.58;;;;;;;7.24;100.00;100168.78;5077049;28;20106;-75
2022/12/29 10:45:04;;;;;;;21.38;3.70;;;;;;;7.09;100.00;100178.28;5074530;28;20032;-79
2022/12/29 10:47:34;;;;;;;20.10;3.60;;;;;;;7.16;100.00;100173.94;5074350;28;20021;-79
2022/12/29 10:50:02;;;;;;;18.52;3.20;;;;;;;7.20;100.00;100152.06;5070244;28;20108;-79
2022/12/29 10:52:28;;;;;;;19.40;3.35;;;;;;;7.20;100.00;100185.38;5075833;28;20047;-81
2022/12/29 10:55:23;;;;;;;21.88;3.92;;;;;;;7.26;100.00;100194.19;5074546;28;20489;-83
2022/12/29 10:57:49;;;;;;;22.05;3.97;;;;;;;7.29;100.00;100181.06;5055189;28;20044;-83
2022/12/29 11:00:22;;;;;;;18.35;3.38;;;;;;;7.31;100.00;100186.31;5086110;28;20409;-84
2022/12/29 11:02:50;;;;;;;;;;;;;;;7.24;100.00;100195.94;5073666;28;20035;-79
2022/12/29 11:05:27;;;;;;;20.23;3.55;;;;;;;7.26;100.00;100194.19;5076324;28;19912;-78
2022/12/29 11:07:58;;;;;;;20.23;3.90;;;;;;;7.28;100.00;100224.00;5074155;28;20381;-82
2022/12/29 11:10:30;;;;;;;22.00;3.92;;;;;;;7.22;100.00;100209.91;5074400;28;20020;-78
2022/12/29 11:13:01;;;;;;;21.60;3.63;;;;;;;7.19;100.00;100234.44;5071898;28;20055;-78
2022/12/29 11:15:27;;;;;;;21.40;3.90;;;;;;;7.20;100.00;100207.28;5078585;28;20287;-79
2022/12/29 11:17:56;;;;;;;21.40;3.60;;;;;;;7.16;100.00;100202.88;5081958;28;20017;-78
2022/12/29 11:20:38;;;;;;;20.40;3.80;;;;;;;7.22;100.00;100225.69;5085166;28;20409;-78
2022/12/29 11:23:21;;;;;;;23.02;4.20;;;;;;;7.22;100.00;100204.66;5080147;28;20032;-78
2022/12/29 11:26:05;;;;;;;24.98;4.75;;;;;;;7.24;100.00;100211.69;5081638;28;20028;-78
2022/12/29 11:28:31;;;;;;;20.13;3.97;;;;;;;7.26;100.00;100227.50;5079094;28;20036;-78
2022/12/29 11:31:02;;;;;;;22.63;4.20;;;;;;;7.37;100.00;100217.03;5084708;28;20035;-77
2022/12/29 11:33:28;;;;;;;21.00;4.18;;;;;;;7.46;100.00;100230.28;5063093;28;20032;-77
2022/12/29 11:35:58;;;;;;;20.38;3.80;;;;;;;7.56;100.00;100244.34;5084598;28;20024;-78
2022/12/29 11:38:29;;;;;;;19.05;3.80;;;;;;;7.54;100.00;100225.94;5077248;28;20024;-78
2022/12/29 11:40:54;;;;;;;21.00;3.75;;;;;;;7.50;100.00;100232.94;5077698;28;20344;-77
2022/12/29 11:43:29;;;;;;;21.38;3.70;;;;;;;7.51;100.00;100218.03;5084350;28;20039;-78
2022/12/29 11:45:56;;;;;;;22.50;3.92;;;;;;;7.57;100.00;100241.75;5077417;28;20028;-78
2022/12/29 11:48:22;;;;;;;20.23;3.67;;;;;;;7.58;100.00;100248.75;5077082;28;20395;-78
2022/12/29 11:50:53;;;;;;;19.25;3.58;;;;;;;7.63;100.00;100246.16;5084180;28;20462;-75
2022/12/29 11:53:26;;;;;;;20.10;3.80;;;;;;;7.72;100.00;100259.41;5081012;28;20540;-78
2022/12/29 11:56:01;;;;;;;19.45;3.85;;;;;;;7.72;100.00;100261.13;5076830;28;20032;-78
2022/12/29 11:58:34;;;;;;;22.27;3.97;;;;;;;7.74;100.00;100267.31;5077712;28;20028;-74
2022/12/29 12:01:06;;;;;;;23.95;4.30;;;;;;;7.71;100.00;100248.88;5083853;28;20032;-78
2022/12/29 12:03:36;;;;;;;22.02;4.00;;;;;;;7.66;100.00;100243.56;5081313;28;20059;-75
2022/12/29 12:06:02;;;;;;;18.17;3.50;;;;;;;7.62;100.00;100245.28;5083390;28;20024;-74
2022/12/29 12:08:41;;;;;;;20.73;3.72;;;;;;;7.62;100.00;100247.91;5081179;28;20035;-75
2022/12/29 12:11:12;;;;;;;20.40;3.78;;;;;;;7.82;100.00;100241.88;5082732;28;20051;-77
2022/12/29 12:13:47;;;;;;;20.38;3.78;;;;;;;8.12;100.00;100240.31;5082215;28;20024;-76
2022/12/29 12:16:20;;;;;;;20.58;3.60;;;;;;;8.08;100.00;100257.88;5081683;28;20069;-77
2022/12/29 12:18:57;;;;;;;18.63;3.50;;;;;;;8.11;100.00;100259.59;5065253;28;20062;-77